Time;durP1;ratioP1;P1;durP2;ratioP2;P2;SDS_P1;SDS_P2;PMS_P1;PMS_P2;Temp;Humidity;BMP_temperature;BMP_pressure;BME280_temperature;BME280_humidity;BME280_pressure;Samples;Min_cycle;Max_cycle;Signal;HPM_P1;HPM_P2
2023/02/07 00:00:21;;;;;;;;;;;;;;;-1.23;100.00;98187.88;5093456;28;19984;-75
2023/02/07 00:02:47;;;;;;;;;;;;;;;-1.29;100.00;98196.00;5075679;28;20405;-75
2023/02/07 00:05:14;;;;;;;;;;;;;;;-1.32;100.00;98192.81;5093431;28;19960;-75
2023/02/07 00:07:40;;;;;;;;;;;;;;;-1.39;100.00;98187.22;5093067;28;19961;-75
2023/02/07 00:10:07;;;;;;;;;;;;;;;-1.43;100.00;98183.19;5093239;28;19938;-76
2023/02/07 00:12:33;;;;;;;;;;;;;;;-1.45;100.00;98185.88;5093704;28;19955;-75
2023/02/07 00:14:59;;;;;;;;;;;;;;;-1.47;100.00;98192.03;5094849;28;19951;-75
2023/02/07 00:17:27;;;;;;;;;;;;;;;-1.52;99.46;98186.38;5096880;28;19941;-75
2023/02/07 00:19:52;;;;;;;;;;;;;;;-1.58;98.86;98172.16;5096875;28;19962;-75
2023/02/07 00:22:18;;;;;;;;;;;;;;;-1.59;100.00;98190.28;5096703;28;19950;-75
2023/02/07 00:24:44;;;;;;;;;;;;;;;-1.61;100.00;98184.41;5097064;28;20324;-75
2023/02/07 00:27:10;;;;;;;;;;;;;;;-1.73;98.36;98163.66;5096903;28;19945;-75
2023/02/07 00:29:36;;;;;;;;;;;;;;;-1.78;98.65;98170.06;5078867;28;19945;-75
2023/02/07 00:32:02;;;;;;;;;;;;;;;-1.88;96.52;98165.47;5096118;28;19953;-75
2023/02/07 00:34:28;;;;;;;;;;;;;;;-1.96;98.33;98175.41;5096677;28;19969;-76
2023/02/07 00:36:53;;;;;;;;;;;;;;;-2.01;96.94;98168.94;5096452;28;19960;-76
2023/02/07 00:39:19;;;;;;;;;;;;;;;-2.10;98.64;98168.59;5078364;28;20061;-75
2023/02/07 00:41:45;;;;;;;;;;;;;;;-2.20;96.59;98146.94;5096228;28;20016;-75
2023/02/07 00:44:11;;;;;;;;;;;;;;;-2.28;97.04;98142.28;5096455;28;20006;-75
2023/02/07 00:46:37;;;;;;;;;;;;;;;-2.33;97.68;98151.19;5096521;28;19954;-76
2023/02/07 00:49:04;;;;;;;;;;;;;;;-2.37;97.20;98154.84;5096291;28;19949;-75
2023/02/07 00:51:30;;;;;;;;;;;;;;;-2.47;95.72;98147.72;5096349;28;19949;-74
2023/02/07 00:53:56;;;;;;;;;;;;;;;-2.52;97.23;98151.47;5096065;28;19957;-75
2023/02/07 00:56:23;;;;;;;;;;;;;;;-2.53;98.62;98170.38;5096207;28;19943;-75
2023/02/07 00:58:49;;;;;;;;;;;;;;;-2.57;97.59;98158.66;5096154;28;20309;-75
2023/02/07 01:01:15;;;;;;;;;;;;;;;-2.59;97.41;98152.78;5096358;28;19946;-75
2023/02/07 01:03:41;;;;;;;;;;;;;;;-2.63;96.79;98161.59;5096191;28;20396;-75
2023/02/07 01:06:07;;;;;;;;;;;;;;;-2.73;96.61;98161.31;5095900;28;19950;-75
2023/02/07 01:08:33;;;;;;;;;;;;;;;-2.74;98.25;98173.34;5078263;28;19940;-75
2023/02/07 01:11:04;;;;;;;;;;;;;;;-2.70;97.70;98179.13;5096089;28;19949;-76
2023/02/07 01:13:29;;;;;;;;;;;;;;;-2.69;96.93;98173.06;5095849;28;19955;-75
2023/02/07 01:15:55;;;;;;;;;;;;;;;-2.73;97.08;98172.44;5095968;28;19953;-75
2023/02/07 01:18:21;;;;;;;;;;;;;;;-2.71;98.36;98175.72;5095431;28;19999;-75
2023/02/07 01:20:47;;;;;;;;;;;;;;;-2.64;99.11;98176.19;5095650;28;20371;-75
2023/02/07 01:23:14;;;;;;;;;;;;;;;-2.60;99.38;98172.50;5095740;28;20014;-75
2023/02/07 01:25:42;;;;;;;;;;;;;;;-2.55;98.96;98174.78;5095392;28;19951;-75
2023/02/07 01:28:08;;;;;;;;;;;;;;;-2.59;97.66;98165.63;5094809;28;19964;-75
2023/02/07 01:30:34;;;;;;;;;;;;;;;-2.61;98.07;98167.47;5095547;28;19947;-75
2023/02/07 01:33:00;;;;;;;;;;;;;;;-2.60;98.26;98166.53;5095524;28;19953;-75
2023/02/07 01:35:27;;;;;;;;;;;;;;;-2.63;96.67;98147.00;5095495;28;19949;-75
2023/02/07 01:37:53;;;;;;;;;;;;;;;-2.66;96.97;98148.00;5095372;28;20320;-75
2023/02/07 01:40:19;;;;;;;;;;;;;;;-2.71;95.22;98120.94;5095248;28;19946;-75
2023/02/07 01:42:45;;;;;;;;;;;;;;;-2.72;97.51;98116.75;5095303;28;19985;-75
2023/02/07 01:45:23;;;;;;;;;;;;;;;-2.72;97.68;98109.88;5095266;28;20310;-75
2023/02/07 01:47:51;;;;;;;;;;;;;;;-2.67;97.97;98136.09;5095094;28;19943;-75
2023/02/07 01:50:17;;;;;;;;;;;;;;;-2.64;97.39;98145.38;5095449;28;19946;-75
2023/02/07 01:52:43;;;;;;;;;;;;;;;-2.59;98.21;98161.31;5095750;28;20398;-75
2023/02/07 01:55:14;;;;;;;;;;;;;;;-2.56;98.22;98158.56;5095003;28;20287;-75
2023/02/07 01:57:40;;;;;;;;;;;;;;;-2.56;98.29;98158.56;5060302;28;20005;-75
2023/02/07 02:00:07;;;;;;;;;;;;;;;-2.59;96.46;98145.91;5094950;28;20016;-75
2023/02/07 02:02:33;;;;;;;;;;;;;;;-2.61;97.02;98152.06;5094792;28;19951;-75
2023/02/07 02:04:59;;;;;;;;;;;;;;;-2.64;97.53;98163.34;5095390;28;20346;-75
2023/02/07 02:07:27;;;;;;;;;;;;;;;-2.67;97.86;98173.78;5094761;28;19956;-75
2023/02/07 02:09:53;;;;;;;;;;;;;;;-2.69;97.88;98184.16;5076753;28;19946;-75
2023/02/07 02:12:20;;;;;;;;;;;;;;;-2.71;98.33;98191.13;5094870;28;19969;-75
2023/02/07 02:15:04;;;;;;;;;;;;;;;-2.68;98.76;98190.94;5094759;28;19955;-76
2023/02/07 02:17:42;;;;;;;;;;;;;;;-2.69;98.11;98181.59;5094763;28;19946;-75
2023/02/07 02:20:26;;;;;;;;;;;;;;;-2.71;98.37;98187.72;5085278;28;20440;-75
2023/02/07 02:23:03;;;;;;;;;;;;;;;-2.72;98.53;98199.75;5094383;28;19946;-76
2023/02/07 02:25:41;;;;;;;;;;;;;;;-2.74;97.59;98204.16;5095132;28;19959;-75
2023/02/07 02:28:13;;;;;;;;;;;;;;;-2.70;98.77;98207.38;5094536;28;19947;-76
2023/02/07 02:30:39;;;;;;;;;;;;;;;-2.70;97.59;98200.47;5094461;28;19950;-75
2023/02/07 02:33:08;;;;;;;;;;;;;;;-2.72;97.12;98201.50;5094489;28;20432;-75
2023/02/07 02:35:48;;;;;;;;;;;;;;;-2.75;97.24;98201.66;5094183;28;19940;-75
2023/02/07 02:38:24;;;;;;;;;;;;;;;-2.82;96.59;98198.63;5093917;28;19947;-75
2023/02/07 02:41:10;;;;;;;;;;;;;;;-2.86;97.00;98195.44;5094274;28;20429;-75
2023/02/07 02:43:44;;;;;;;;;;;;;;;-2.88;97.65;98202.41;5094073;28;19979;-75
2023/02/07 02:46:13;;;;;;;;;;;;;;;-2.86;97.97;98190.31;5083398;28;19948;-75
2023/02/07 02:48:40;;;;;;;;;;;;;;;-2.83;96.32;98183.31;5094334;28;19947;-76
2023/02/07 02:51:06;;;;;;;;;;;;;;;-2.89;95.20;98166.56;5094500;28;20313;-75
2023/02/07 02:53:32;;;;;;;;;;;;;;;-2.95;95.61;98172.03;5094203;28;19950;-75
2023/02/07 02:55:58;;;;;;;;;;;;;;;-2.97;96.06;98187.53;5094030;28;20409;-75
2023/02/07 02:58:23;;;;;;;;;;;;;;;-3.03;96.38;98190.44;5093958;28;20013;-75
2023/02/07 03:00:57;;;;;;;;;;;;;;;-3.06;95.98;98178.63;5093847;28;19951;-75
2023/02/07 03:03:36;;;;;;;;;;;;;;;-3.04;96.01;98188.81;5094443;28;19950;-75
2023/02/07 03:06:02;;;;;;;;;;;;;;;-3.04;95.26;98193.94;5083812;28;19954;-75
2023/02/07 03:08:27;;;;;;;;;;;;;;;-3.06;95.61;98193.22;5075882;28;19955;-75
2023/02/07 03:10:56;;;;;;;;;;;;;;;-3.08;95.55;98197.59;5093859;28;19956;-75
2023/02/07 03:13:30;;;;;;;;;;;;;;;-3.15;94.73;98184.31;5093594;28;19951;-75
2023/02/07 03:16:13;;;;;;;;;;;;;;;-3.23;95.59;98190.78;5093733;28;19951;-75
2023/02/07 03:18:46;;;;;;;;;;;;;;;-3.33;94.79;98188.75;5093873;28;19956;-75
2023/02/07 03:21:18;;;;;;;;;;;;;;;-3.33;96.01;98198.19;5093141;28;19957;-75
2023/02/07 03:23:45;;;;;;;;;;;;;;;-3.37;93.28;98183.88;5093920;28;19949;-75
2023/02/07 03:26:11;;;;;;;;;;;;;;;-3.38;94.87;98200.19;5093719;28;20427;-75
2023/02/07 03:28:38;;;;;;;;;;;;;;;-3.35;95.45;98205.16;5075774;28;19958;-75
2023/02/07 03:31:06;;;;;;;;;;;;;;;-3.27;95.69;98214.06;5093526;28;19953;-75
2023/02/07 03:33:32;;;;;;;;;;;;;;;-3.20;95.73;98218.84;5093608;28;19968;-74
2023/02/07 03:36:07;;;;;;;;;;;;;;;-3.14;95.94;98221.06;5075333;28;20408;-75
2023/02/07 03:38:33;;;;;;;;;;;;;;;-3.12;94.47;98212.34;5075395;28;19964;-75
2023/02/07 03:41:03;;;;;;;;;;;;;;;-3.14;94.67;98216.75;5093661;28;19950;-75
2023/02/07 03:43:31;;;;;;;;;;;;;;;-3.11;95.87;98223.44;5093257;28;19980;-75
2023/02/07 03:45:57;;;;;;;;;;;;;;;-3.08;95.84;98220.72;5093474;28;19946;-75
2023/02/07 03:48:23;;;;;;;;;;;;;;;-3.06;95.40;98218.88;5093618;28;20468;-75
2023/02/07 03:50:50;;;;;;;;;;;;;;;-3.08;95.61;98211.25;5096456;28;19955;-75
2023/02/07 03:53:16;;;;;;;;;;;;;;;-3.07;95.21;98217.22;5097502;28;19962;-75
2023/02/07 03:55:42;;;;;;;;;;;;;;;-3.04;95.07;98211.06;5097386;28;19947;-75
2023/02/07 03:58:09;;;;;;;;;;;;;;;-3.03;95.49;98215.31;5079342;28;19967;-75
2023/02/07 04:00:35;;;;;;;;;;;;;;;-3.04;94.92;98214.47;5079333;28;20153;-75
2023/02/07 04:03:01;;;;;;;;;;;;;;;-3.04;94.76;98205.94;5097071;28;19953;-75
2023/02/07 04:05:27;;;;;;;;;;;;;;;-3.06;94.69;98218.88;5097523;28;19955;-75
2023/02/07 04:07:53;;;;;;;;;;;;;;;-3.06;94.62;98221.44;5097111;28;19945;-75
2023/02/07 04:10:19;;;;;;;;;;;;;;;-3.08;94.88;98221.53;5097178;28;19959;-75
2023/02/07 04:12:45;;;;;;;;;;;;;;;-3.12;94.69;98217.47;5097335;28;20007;-75
2023/02/07 04:15:11;;;;;;;;;;;;;;;-3.15;94.43;98207.41;5096911;28;19964;-75
2023/02/07 04:17:37;;;;;;;;;;;;;;;-3.19;94.53;98213.63;5097017;28;20329;-75
2023/02/07 04:20:04;;;;;;;;;;;;;;;-3.24;95.04;98209.66;5096726;28;20433;-75
2023/02/07 04:22:30;;;;;;;;;;;;;;;-3.28;94.22;98209.00;5096895;28;19962;-75
2023/02/07 04:24:56;;;;;;;;;;;;;;;-3.31;94.88;98217.72;5078869;28;19954;-76
2023/02/07 04:27:22;;;;;;;;;;;;;;;-3.36;94.65;98208.59;5096861;28;20032;-75
2023/02/07 04:29:48;;;;;;;;;;;;;;;-3.41;94.62;98202.94;5096643;28;20391;-74
2023/02/07 04:32:14;;;;;;;;;;;;;;;-3.44;94.94;98201.38;5096726;28;19955;-75
2023/02/07 04:34:40;;;;;;;;;;;;;;;-3.47;95.00;98199.78;5078657;28;20004;-75
2023/02/07 04:37:06;;;;;;;;;;;;;;;-3.47;95.21;98197.22;5096490;28;19966;-76
2023/02/07 04:39:32;;;;;;;;;;;;;;;-3.49;95.25;98193.09;5096670;28;19955;-75
2023/02/07 04:41:58;;;;;;;;;;;;;;;-3.53;94.80;98191.63;5096482;28;20389;-75
2023/02/07 04:44:24;;;;;;;;;;;;;;;-3.60;95.63;98203.13;5096371;28;19961;-75
2023/02/07 04:46:49;;;;;;;;;;;;;;;-3.68;95.56;98196.69;5096245;28;20379;-75
2023/02/07 04:49:15;;;;;;;;;;;;;;;-3.71;95.77;98203.75;5096450;28;20053;-75
2023/02/07 04:51:41;;;;;;;;;;;;;;;-3.75;95.20;98192.81;5095599;28;19957;-75
2023/02/07 04:54:07;;;;;;;;;;;;;;;-3.80;96.31;98202.50;5096540;28;19948;-75
2023/02/07 04:56:33;;;;;;;;;;;;;;;-3.84;96.19;98205.31;5096317;28;19979;-76
2023/02/07 04:58:59;;;;;;;;;;;;;;;-3.89;96.50;98206.38;5096148;28;19960;-75
2023/02/07 05:01:25;;;;;;;;;;;;;;;-3.92;96.76;98208.31;5077034;28;19953;-75
2023/02/07 05:03:50;;;;;;;;;;;;;;;-3.93;96.28;98209.19;5096167;28;19948;-75
2023/02/07 05:06:16;;;;;;;;;;;;;;;-3.96;97.07;98211.94;5096059;28;19946;-75
2023/02/07 05:08:42;;;;;;;;;;;;;;;-3.99;97.13;98215.50;5096046;28;20395;-75
2023/02/07 05:11:08;;;;;;;;;;;;;;;-4.02;96.95;98210.53;5095917;28;19993;-77
2023/02/07 05:13:34;;;;;;;;;;;;;;;-3.98;97.21;98216.34;5096160;28;19956;-75
2023/02/07 05:16:03;;;;;;;;;;;;;;;-3.94;97.29;98208.38;5095624;28;19958;-75
2023/02/07 05:18:30;;;;;;;;;;;;;;;-3.89;97.29;98210.69;5095812;28;20415;-75
2023/02/07 05:20:56;;;;;;;;;;;;;;;-3.88;96.84;98212.34;5095826;28;19964;-75
2023/02/07 05:23:22;;;;;;;;;;;;;;;-3.90;95.71;98204.75;5095840;28;19950;-75
2023/02/07 05:25:48;;;;;;;;;;;;;;;-3.92;96.33;98205.75;5095809;28;19951;-75
2023/02/07 05:28:14;;;;;;;;;;;;;;;-3.94;95.98;98200.69;5094916;28;19949;-76
2023/02/07 05:30:40;;;;;;;;;;;;;;;-3.97;96.10;98207.72;5080409;28;19953;-75
2023/02/07 05:33:06;;;;;;;;;;;;;;;-4.03;96.27;98208.03;5095673;28;19954;-75
2023/02/07 05:35:33;;;;;;;;;;;;;;;-4.06;95.92;98203.91;5095684;28;19951;-75
2023/02/07 05:37:59;;;;;;;;;;;;;;;-4.05;96.00;98215.84;5095513;28;19979;-75
2023/02/07 05:40:26;;;;;;;;;;;;;;;-4.07;95.47;98209.97;5095593;28;19964;-75
2023/02/07 05:42:52;;;;;;;;;;;;;;;-4.08;96.01;98209.13;5094990;28;19979;-75
2023/02/07 05:45:18;;;;;;;;;;;;;;;-4.10;95.62;98210.13;5095367;28;19956;-75
2023/02/07 05:47:44;;;;;;;;;;;;;;;-4.12;96.60;98217.06;5095264;28;19955;-75
2023/02/07 05:50:10;;;;;;;;;;;;;;;-4.12;95.75;98229.88;5095062;28;19956;-75
2023/02/07 05:52:36;;;;;;;;;;;;;;;-4.12;96.14;98235.00;5094294;28;19956;-75
2023/02/07 05:55:02;;;;;;;;;;;;;;;-4.12;95.71;98237.56;5095259;28;19987;-75
2023/02/07 05:57:28;;;;;;;;;;;;;;;-4.14;96.02;98244.50;5077038;28;19960;-76
2023/02/07 05:59:54;;;;;;;;;;;;;;;-4.18;96.13;98231.03;5095004;28;20304;-75
2023/02/07 06:02:20;;;;;;;;;;;;;;;-4.26;96.58;98238.31;5095542;28;19999;-75
2023/02/07 06:04:46;;;;;;;;;;;;;;;-4.37;96.51;98236.28;5095028;28;19959;-75
2023/02/07 06:07:12;;;;;;;;;;;;;;;-4.42;96.61;98240.00;5076601;28;20464;-75
2023/02/07 06:09:38;;;;;;;;;;;;;;;-4.47;96.11;98226.59;5094835;28;20401;-75
2023/02/07 06:12:04;;;;;;;;;;;;;;;-4.53;96.64;98232.88;5094797;28;20347;-75
2023/02/07 06:14:29;;;;;;;;;;;;;;;-4.53;96.96;98225.22;5094371;28;19957;-75
2023/02/07 06:16:55;;;;;;;;;;;;;;;-4.52;97.21;98230.22;5094968;28;19949;-75
2023/02/07 06:19:21;;;;;;;;;;;;;;;-4.50;97.39;98230.16;5094896;28;19967;-75
2023/02/07 06:21:47;;;;;;;;;;;;;;;-4.46;97.11;98223.16;5076013;28;19954;-75
2023/02/07 06:24:14;;;;;;;;;;;;;;;-4.45;97.04;98224.78;5076724;28;19958;-75
2023/02/07 06:26:40;;;;;;;;;;;;;;;-4.49;97.05;98221.59;5094497;28;20405;-75
2023/02/07 06:29:06;;;;;;;;;;;;;;;-4.52;97.55;98221.72;5094298;28;19982;-76
2023/02/07 06:31:32;;;;;;;;;;;;;;;-4.53;97.47;98214.97;5076500;28;20410;-75
2023/02/07 06:33:57;;;;;;;;;;;;;;;-4.52;97.98;98216.59;5076144;28;19941;-75
2023/02/07 06:36:23;;;;;;;;;;;;;;;-4.53;97.74;98218.34;5094546;28;20346;-76
2023/02/07 06:38:53;;;;;;;;;;;;;;;-4.52;97.61;98214.88;5094362;28;19946;-75
2023/02/07 06:41:19;;;;;;;;;;;;;;;-4.51;97.72;98208.03;5093782;28;20316;-75
2023/02/07 06:43:45;;;;;;;;;;;;;;;-4.50;96.85;98200.25;5094420;28;19958;-75
2023/02/07 06:46:11;;;;;;;;;;;;;;;-4.46;97.13;98208.59;5059253;28;19953;-75
2023/02/07 06:48:37;;;;;;;;;;;;;;;-4.43;96.64;98211.03;5076424;28;20007;-75
2023/02/07 06:51:03;;;;;;;;;;;;;;;-4.43;96.72;98208.47;5094113;28;19952;-75
2023/02/07 06:53:28;;;;;;;;;;;;;;;-4.42;96.82;98216.97;5094376;28;20049;-75
2023/02/07 06:55:54;;;;;;;;;;;;;;;-4.43;96.92;98231.50;5093995;28;20070;-76
2023/02/07 06:58:20;;;;;;;;;;;;;;;-4.43;96.68;98240.91;5094051;28;20040;-75
2023/02/07 07:00:46;;;;;;;;;;;;;;;-4.47;97.32;98240.25;5093883;28;20433;-75
2023/02/07 07:03:13;;;;;;;;;;;;;;;-4.52;96.94;98245.59;5094046;28;19996;-75
2023/02/07 07:05:40;;;;;;;;;;;;;;;-4.52;97.80;98242.22;5075953;28;19952;-75
2023/02/07 07:08:06;;;;;;;;;;;;;;;-4.50;97.76;98237.84;5093800;28;19961;-76
2023/02/07 07:10:32;;;;;;;;;;;;;;;-4.44;97.20;98241.81;5093982;28;19958;-75
2023/02/07 07:12:58;;;;;;;;;;;;;;;-4.39;97.73;98243.25;5093538;28;19946;-75
2023/02/07 07:15:24;;;;;;;;;;;;;;;-4.37;97.20;98238.84;5093777;28;19948;-75
2023/02/07 07:17:50;;;;;;;;;;;;;;;-4.38;97.63;98238.94;5093722;28;19951;-75
2023/02/07 07:20:16;;;;;;;;;;;;;;;-4.34;97.84;98246.38;5094034;28;20044;-75
2023/02/07 07:22:41;;;;;;;;;;;;;;;-4.15;97.44;98245.41;5093574;28;20052;-75
2023/02/07 07:25:07;;;;;;;;;;;;;;;-3.81;96.68;98241.03;5095579;28;20047;-75
2023/02/07 07:27:33;;;;;;;;;;;;;;;-3.45;95.45;98233.03;5098086;28;19949;-75
2023/02/07 07:29:59;;;;;;;;;;;;;;;-3.13;94.00;98225.25;5062912;28;19994;-75
2023/02/07 07:32:26;;;;;;;;;;;;;;;-2.81;92.54;98220.00;5097983;28;19949;-75
2023/02/07 07:34:53;;;;;;;;;;;;;;;-2.38;91.01;98205.41;5097757;28;19952;-76
2023/02/07 07:37:19;;;;;;;;;;;;;;;-1.90;90.05;98199.94;5097773;28;19958;-76
2023/02/07 07:39:45;;;;;;;;;;;;;;;-1.49;87.05;98179.28;5097778;28;19967;-76
2023/02/07 07:42:11;;;;;;;;;;;;;;;-1.11;87.19;98168.22;5097589;28;19971;-76
2023/02/07 07:44:37;;;;;;;;;;;;;;;-0.77;84.00;98153.09;5079769;28;19954;-75
2023/02/07 07:47:03;;;;;;;;;;;;;;;-0.57;82.32;98138.81;5097414;28;19970;-75
2023/02/07 07:49:29;;;;;;;;;;;;;;;-0.47;83.49;98129.53;5097557;28;19945;-75
2023/02/07 07:51:55;;;;;;;;;;;;;;;-0.36;82.65;98126.19;5097410;28;20384;-75
2023/02/07 07:54:21;;;;;;;;;;;;;;;-0.24;82.90;98127.91;5079072;28;19947;-76
2023/02/07 07:56:46;;;;;;;;;;;;;;;-0.13;81.94;98123.75;5097262;28;19953;-76
2023/02/07 07:59:12;;;;;;;;;;;;;;;-0.06;82.73;98130.94;5097787;28;19985;-76
2023/02/07 08:01:38;;;;;;;;;;;;;;;-0.03;82.72;98122.16;5097345;28;19972;-75
2023/02/07 08:04:04;;;;;;;;;;;;;;;0.04;81.71;98113.03;5097521;28;19946;-75
2023/02/07 08:06:30;;;;;;;;;;;;;;;0.11;80.19;98100.56;5097333;28;20431;-75
2023/02/07 08:08:57;;;;;;;;;;;;;;;0.23;79.96;98102.22;5097126;28;19949;-76
2023/02/07 08:11:23;;;;;;;;;;;;;;;0.38;81.11;98108.84;5079485;28;19944;-76
2023/02/07 08:13:49;;;;;;;;;;;;;;;0.53;80.56;98114.66;5096992;28;19954;-76
2023/02/07 08:16:15;;;;;;;;;;;;;;;0.55;78.80;98097.28;5097029;28;19952;-76
2023/02/07 08:18:42;;;;;;;;;;;;;;;0.55;78.08;98086.13;5096777;28;19958;-76
2023/02/07 08:21:08;;;;;;;;;;;;;;;0.54;77.77;98090.47;5096988;28;20414;-75
2023/02/07 08:23:33;;;;;;;;;;;;;;;0.54;78.20;98094.81;5096745;28;20038;-75
2023/02/07 08:26:00;;;;;;;;;;;;;;;0.60;78.44;98089.19;5097117;28;20036;-77
2023/02/07 08:28:26;;;;;;;;;;;;;;;0.62;75.56;98089.09;5078596;28;19941;-75
2023/02/07 08:30:52;;;;;;;;;;;;;;;0.62;76.93;98102.00;5097185;28;19950;-75
2023/02/07 08:33:18;;;;;;;;;;;;;;;0.68;79.79;98138.50;5096852;28;20325;-75
2023/02/07 08:35:44;;;;;;;;;;;;;;;0.73;77.21;98109.75;5096657;28;19958;-75
2023/02/07 08:38:09;;;;;;;;;;;;;;;0.67;76.50;98112.78;5096506;28;19952;-75
2023/02/07 08:40:36;;;;;;;;;;;;;;;0.59;76.15;98116.78;5096302;28;20002;-75
2023/02/07 08:43:05;;;;;;;;;;;;;;;0.52;77.69;98133.63;5096930;28;19976;-75
2023/02/07 08:45:31;;;;;;;;;;;;;;;0.40;77.61;98134.56;5096489;28;19957;-75
2023/02/07 08:47:58;;;;;;;;;;;;;;;0.32;77.65;98126.56;5096318;28;19954;-75
2023/02/07 08:50:24;;;;;;;;;;;;;;;0.26;76.59;98129.56;5096392;28;20326;-75
2023/02/07 08:52:50;;;;;;;;;;;;;;;0.05;73.06;98086.34;5096081;28;19968;-75
2023/02/07 08:55:16;;;;;;;;;;;;;;;-0.04;76.51;98138.59;5096813;28;20454;-75
2023/02/07 08:57:42;;;;;;;;;;;;;;;-0.13;75.02;98121.16;5096206;28;19950;-75
2023/02/07 09:00:08;;;;;;;;;;;;;;;-0.14;77.30;98153.06;5078062;28;19964;-76
2023/02/07 09:02:34;;;;;;;;;;;;;;;-0.13;78.61;98158.09;5079846;28;19950;-75
2023/02/07 09:05:00;;;;;;;;;;;;;;;-0.08;79.07;98179.25;5095640;28;19944;-75
2023/02/07 09:07:26;;;;;;;;;;;;;;;0.01;79.01;98175.19;5095354;28;19945;-74
2023/02/07 09:09:52;;;;;;;;;;;;;;;-0.03;78.02;98169.41;5096060;28;19952;-74
2023/02/07 09:12:18;;;;;;;;;;;;;;;-0.06;77.76;98176.56;5095984;28;19949;-74
2023/02/07 09:14:43;;;;;;;;;;;;;;;-0.09;78.81;98175.00;5095798;28;19952;-74
2023/02/07 09:17:09;;;;;;;;;;;;;;;-0.03;78.64;98174.56;5095807;28;20001;-74
2023/02/07 09:19:35;;;;;;;;;;;;;;;0.15;78.46;98172.44;5095769;28;20045;-75
2023/02/07 09:22:02;;;;;;;;;;;;;;;0.35;80.13;98185.66;5095780;28;20008;-74
2023/02/07 09:24:28;;;;;;;;;;;;;;;0.52;78.61;98156.06;5095811;28;19976;-74
2023/02/07 09:26:53;;;;;;;;;;;;;;;0.62;77.55;98148.47;5077689;28;19979;-74
2023/02/07 09:29:19;;;;;;;;;;;;;;;0.62;75.44;98127.81;5095416;28;19999;-74
2023/02/07 09:31:45;;;;;;;;;;;;;;;0.62;76.59;98135.56;5095475;28;20427;-74
2023/02/07 09:34:11;;;;;;;;;;;;;;;0.68;76.93;98123.00;5095446;28;19951;-74
2023/02/07 09:36:37;;;;;;;;;;;;;;;0.87;78.41;98140.53;5095365;28;19957;-73
2023/02/07 09:39:04;;;;;;;;;;;;;;;0.94;76.31;98118.47;5095435;28;20317;-74
2023/02/07 09:41:48;;;;;;;;;;;;;;;0.99;76.70;98136.22;5095132;28;19974;-74
2023/02/07 09:44:17;;;;;;;;;;;;;;;0.97;74.08;98113.06;5095324;28;19953;-73
2023/02/07 09:46:49;;;;;;;;;;;;;;;0.95;75.88;98143.38;5095094;28;19947;-74
2023/02/07 09:49:20;;;;;;;;;;;;;;;1.00;75.22;98137.84;5095192;28;19954;-74
2023/02/07 09:51:47;;;;;;;;;;;;;;;1.09;75.34;98144.06;5095069;28;19951;-75
2023/02/07 09:54:31;;;;;;;;;;;;;;;1.18;76.46;98159.72;5095231;28;19956;-75
2023/02/07 09:56:59;;;;;;;;;;;;;;;1.22;73.83;98137.06;5094957;28;19948;-76
2023/02/07 09:59:33;;;;;;;;;;;;;;;1.26;75.01;98143.66;5094941;28;20305;-75
2023/02/07 10:02:03;;;;;;;;;;;;;;;1.30;73.76;98141.63;5094938;28;19951;-75
2023/02/07 10:04:34;;;;;;;;;;;;;;;1.32;75.38;98157.84;5095367;28;19956;-75
2023/02/07 10:07:03;;;;;;;;;;;;;;;1.35;73.99;98132.59;5094948;28;19951;-75
2023/02/07 10:09:30;;;;;;;;;;;;;;;1.42;72.81;98131.16;5094923;28;20414;-75
2023/02/07 10:12:01;;;;;;;;;;;;;;;1.52;73.79;98139.03;5095038;28;19951;-75
2023/02/07 10:14:46;;;;;;;;;;;;;;;1.60;74.93;98153.97;5085888;28;19957;-75
2023/02/07 10:17:19;;;;;;;;;;;;;;;1.63;73.28;98136.44;5085906;28;20388;-75
2023/02/07 10:19:57;;;;;;;;;;;;;;;1.58;70.80;98122.22;5094596;28;19945;-75
2023/02/07 10:22:29;;;;;;;;;;;;;;;1.62;74.15;98165.03;5094636;28;20420;-74
2023/02/07 10:24:55;;;;;;;;;;;;;;;1.67;72.20;98138.78;5094725;28;19948;-75
2023/02/07 10:27:43;;;;;;;;;;;;;;;1.69;73.98;98150.66;5094640;28;19953;-74
2023/02/07 10:30:20;;;;;;;;;;;;;;;1.71;71.40;98135.03;5087194;28;21241;-75
2023/02/07 10:32:46;;;;;;;;;;;;;;;1.78;70.31;98118.06;5094671;28;19947;-75
2023/02/07 10:35:19;;;;;;;;;;;;;;;1.79;73.10;98146.41;5094219;28;19945;-75
2023/02/07 10:37:46;;;;;;;;;;;;;;;1.80;70.73;98114.41;5094163;28;20357;-75
2023/02/07 10:40:32;;;;;;;;;;;;;;;1.86;69.18;98097.59;5094620;28;19981;-75
2023/02/07 10:43:01;;;;;;;;;;;;;;;1.95;73.67;98142.59;5093970;28;19977;-74
2023/02/07 10:45:27;;;;;;;;;;;;;;;1.92;69.28;98104.06;5094445;28;20318;-75
2023/02/07 10:47:54;;;;;;;;;;;;;;;1.90;71.28;98126.63;5094048;28;19957;-75
2023/02/07 10:50:21;;;;;;;;;;;;;;;1.89;72.07;98145.69;5094308;28;19947;-75
2023/02/07 10:52:52;;;;;;;;;;;;;;;1.90;74.71;98168.84;5094149;28;19955;-75
2023/02/07 10:55:19;;;;;;;;;;;;;;;1.95;68.18;98114.16;5093933;28;20323;-75
2023/02/07 10:57:53;;;;;;;;;;;;;;;2.02;70.13;98129.06;5076042;28;19946;-75
2023/02/07 11:00:23;;;;;;;;;;;;;;;2.08;70.83;98148.47;5093078;28;19963;-75
2023/02/07 11:02:51;;;;;;;;;;;;;;;2.18;72.43;98158.91;5093816;28;19944;-75
2023/02/07 11:05:17;;;;;;;;;;;;;;;2.23;71.09;98157.59;5093916;28;19944;-75
2023/02/07 11:08:00;;;;;;;;;;;;;;;2.32;69.18;98142.25;5093884;28;19954;-74
2023/02/07 11:10:32;;;;;;;;;;;;;;;2.39;67.75;98158.94;5079640;28;20401;-75
2023/02/07 11:12:59;;;;;;;;;;;;;;;2.40;66.51;98183.91;5093984;28;19952;-75
2023/02/07 11:15:46;;;;;;;;;;;;;;;2.44;67.12;98221.56;5093995;28;19974;-74
2023/02/07 11:18:32;;;;;;;;;;;;;;;2.42;66.58;98241.56;5077785;28;19944;-76
2023/02/07 11:20:58;;;;;;;;;;;;;;;2.29;64.90;98261.59;5094097;28;20323;-75
2023/02/07 11:23:24;;;;;;;;;;;;;;;2.25;70.05;98281.72;5093818;28;19947;-75
2023/02/07 11:25:53;;;;;;;;;;;;;;;2.35;67.93;98271.47;5094102;28;19955;-74
2023/02/07 11:28:27;;;;;;;;;;;;;;;2.47;67.61;98273.09;5093539;28;19954;-75
2023/02/07 11:31:06;;;;;;;;;;;;;;;2.60;67.38;98258.25;5093776;28;19951;-74
2023/02/07 11:33:33;;;;;;;;;;;;;;;2.71;68.96;98259.97;5093772;28;19953;-74
2023/02/07 11:36:00;;;;;;;;;;;;;;;2.77;70.45;98267.25;5093884;28;19947;-74
2023/02/07 11:38:27;;;;;;;;;;;;;;;2.75;65.02;98250.16;5093570;28;19944;-74
2023/02/07 11:40:57;;;;;;;;;;;;;;;2.89;65.85;98247.28;5093637;28;19964;-74
2023/02/07 11:43:23;;;;;;;;;;;;;;;3.07;67.73;98254.47;5093695;28;19981;-74
2023/02/07 11:45:50;;;;;;;;;;;;;;;3.13;64.70;98243.63;5093836;28;20313;-74
2023/02/07 11:48:27;;;;;;;;;;;;;;;3.14;68.13;98259.06;5093741;28;19952;-74
2023/02/07 11:50:56;;;;;;;;;;;;;;;3.11;68.72;98256.72;5093571;28;20320;-74
2023/02/07 11:53:26;;;;;;;;;;;;;;;3.07;64.18;98251.91;5093369;28;19945;-75
2023/02/07 11:55:53;;;;;;;;;;;;;;;3.10;63.29;98238.69;5085373;28;19949;-74
2023/02/07 11:58:25;;;;;;;;;;;;;;;3.11;66.68;98274.03;5093510;28;19939;-74
2023/02/07 12:00:53;;;;;;;;;;;;;;;3.20;67.29;98283.66;5093982;28;19958;-74
2023/02/07 12:03:23;;;;;;;;;;;;;;;3.21;65.55;98268.00;5093447;28;19945;-74
2023/02/07 12:05:52;;;;;;;;;;;;;;;3.23;63.13;98262.66;5093510;28;19953;-74
2023/02/07 12:08:21;;;;;;;;;;;;;;;3.27;67.57;98283.97;5093097;28;19951;-75
2023/02/07 12:10:50;;;;;;;;;;;;;;;3.23;63.48;98257.47;5094421;28;19955;-74
2023/02/07 12:13:22;;;;;;;;;;;;;;;3.20;63.06;98261.13;5096888;28;19949;-74
2023/02/07 12:16:08;;;;;;;;;;;;;;;3.18;65.46;98270.81;5097093;28;19949;-75
2023/02/07 12:18:37;;;;;;;;;;;;;;;3.08;62.80;98263.91;5096887;28;19948;-75
2023/02/07 12:21:05;;;;;;;;;;;;;;;2.81;61.32;98265.22;5096987;28;19965;-75
2023/02/07 12:23:34;;;;;;;;;;;;;;;2.66;64.79;98287.16;5097024;28;19951;-74
2023/02/07 12:26:38;;;;;;;;;;;;;;;2.63;59.97;98263.16;5096925;28;19947;-75
2023/02/07 12:29:23;;;;;;;;;;;;;;;2.64;60.84;98264.78;5034135;28;19950;-75
2023/02/07 12:31:55;;;;;;;;;;;;;;;2.62;63.53;98273.63;5034380;28;20346;-75
2023/02/07 12:34:21;;;;;;;;;;;;;;;2.66;64.91;98274.22;5073724;28;19942;-74
2023/02/07 12:36:48;;;;;;;;;;;;;;;2.76;65.46;98278.53;5096206;28;20304;-74
2023/02/07 12:39:22;;;;;;;;;;;;;;;2.75;61.96;98263.97;5096606;28;20434;-74
2023/02/07 12:42:25;;;;;;;;;;;;;;;2.70;66.61;98276.44;5096164;28;19985;-76
2023/02/07 12:44:54;;;;;;;;;;;;;;;2.64;65.30;98263.97;5034435;28;19959;-75
2023/02/07 12:47:55;;;;;;;;;;;;;;;2.60;61.45;98259.97;5085281;28;19947;-75
2023/02/07 12:50:27;;;;;;;;;;;;;;;2.71;64.03;98251.34;5033999;28;19991;-75
2023/02/07 12:52:59;;;;;;;;;;;;;;;2.70;59.84;98239.34;5086078;28;20316;-75
2023/02/07 12:55:25;;;;;;;;;;;;;;;2.73;62.63;98246.88;5096205;28;19954;-75